Time;durP1;ratioP1;P1;durP2;ratioP2;P2;SDS_P1;SDS_P2;PMS_P1;PMS_P2;Temp;Humidity;BMP_temperature;BMP_pressure;BME280_temperature;BME280_humidity;BME280_pressure;Samples;Min_cycle;Max_cycle;Signal;HPM_P1;HPM_P2
2021/03/25 00:01:06;;;;;;;408.80;258.47;;;;;;;-144.99;92.12;52360.44;5067867;28;20622;-77
2021/03/25 00:03:32;;;;;;;462.50;267.77;;;;;;;-144.99;91.99;52425.66;5070345;28;20627;-77
2021/03/25 00:05:58;;;;;;;456.10;261.00;;;;;;;-144.99;92.14;52386.94;5071079;28;20680;-77
2021/03/25 00:08:25;;;;;;;437.30;268.77;;;;;;;-144.99;91.94;52391.03;5069687;28;20983;-78
2021/03/25 00:10:52;;;;;;;449.47;266.73;;;;;;;-144.99;92.18;52382.88;5061791;28;20567;-77
2021/03/25 00:13:19;;;;;;;509.17;283.87;;;;;;;-144.99;92.68;52407.31;5064972;28;20623;-77
2021/03/25 00:15:46;;;;;;;505.73;268.13;;;;;;;-144.99;92.42;52382.88;5067051;28;20720;-75
2021/03/25 00:18:13;;;;;;;433.77;261.13;;;;;;;-144.99;92.41;52409.38;5066626;28;20853;-75
2021/03/25 00:20:40;;;;;;;504.40;266.30;;;;;;;-144.99;92.32;52391.03;5066103;28;20662;-75
2021/03/25 00:23:06;;;;;;;422.53;245.30;;;;;;;-144.99;92.29;52388.97;5058511;28;20668;-76
2021/03/25 00:25:37;;;;;;;316.23;251.40;;;;;;;-144.99;92.71;52441.97;5070082;28;20650;-75
2021/03/25 00:28:05;;;;;;;321.47;228.70;;;;;;;-144.99;93.24;52378.78;5068933;28;21164;-76
2021/03/25 00:30:32;;;;;;;449.23;256.57;;;;;;;-144.99;93.93;52423.63;5068774;28;20619;-75
2021/03/25 00:33:01;;;;;;;539.67;260.97;;;;;;;-144.99;94.47;52431.78;5066985;28;21429;-75
2021/03/25 00:35:28;;;;;;;470.20;262.67;;;;;;;-144.99;94.87;52374.72;5069510;28;20654;-74
2021/03/25 00:37:54;;;;;;;362.10;242.23;;;;;;;-144.99;95.52;52411.41;5067950;28;20733;-75
2021/03/25 00:40:21;;;;;;;392.00;249.10;;;;;;;-144.99;95.60;52370.63;5069645;28;20677;-76
2021/03/25 00:42:48;;;;;;;380.20;243.50;;;;;;;-144.99;95.56;52386.94;5062907;28;21038;-76
2021/03/25 00:45:22;;;;;;;366.87;237.93;;;;;;;-144.99;95.21;52380.84;5066366;28;20658;-76
2021/03/25 00:47:48;;;;;;;386.47;234.33;;;;;;;-144.99;95.23;52366.56;5070229;28;20619;-76
2021/03/25 00:50:20;;;;;;;462.27;263.00;;;;;;;-144.99;95.35;52403.25;5069032;28;20634;-75
2021/03/25 00:52:46;;;;;;;520.53;245.03;;;;;;;-144.99;95.83;52358.41;5059517;28;20205;-75
2021/03/25 00:55:13;;;;;;;572.43;248.57;;;;;;;-144.99;96.02;52407.31;5064086;28;21215;-75
2021/03/25 00:57:39;;;;;;;406.47;238.43;;;;;;;-144.99;96.28;52382.88;5067148;28;20212;-75
2021/03/25 01:00:06;;;;;;;427.33;245.73;;;;;;;-144.99;96.16;52370.63;5063612;28;20739;-75
2021/03/25 01:02:33;;;;;;;393.33;239.00;;;;;;;-144.99;96.06;52403.25;5068889;28;20216;-76
2021/03/25 01:04:59;;;;;;;480.23;286.77;;;;;;;-144.99;95.93;52386.94;5071006;28;21195;-76
2021/03/25 01:07:25;;;;;;;563.97;252.47;;;;;;;-144.99;95.49;52366.56;5069143;28;20729;-76
2021/03/25 01:09:51;;;;;;;566.67;262.27;;;;;;;-144.99;95.08;52393.06;5066641;28;20197;-76
2021/03/25 01:12:18;;;;;;;585.33;275.80;;;;;;;-144.99;94.83;52386.94;5070923;28;20622;-75
2021/03/25 01:14:43;;;;;;;552.10;267.57;;;;;;;-144.99;94.58;52354.34;5061449;28;20669;-75
2021/03/25 01:17:09;;;;;;;556.53;243.47;;;;;;;-144.99;94.10;52386.94;5070079;28;21006;-75
2021/03/25 01:19:36;;;;;;;571.43;236.67;;;;;;;-144.99;93.96;52382.88;5069309;28;20215;-78
2021/03/25 01:22:05;;;;;;;577.90;233.80;;;;;;;-144.99;93.87;52350.25;4719230;28;10000639;-75
2021/03/25 01:24:31;;;;;;;578.13;240.03;;;;;;;-144.99;93.79;52342.09;5064916;28;20213;-76
2021/03/25 01:26:57;;;;;;;528.73;257.13;;;;;;;-144.99;94.43;52346.19;5069940;28;20619;-75
2021/03/25 01:29:23;;;;;;;438.77;257.17;;;;;;;-144.99;94.45;52354.34;5074150;28;20626;-75
2021/03/25 01:31:50;;;;;;;499.03;244.27;;;;;;;-144.99;95.04;52354.34;5066910;28;20607;-76
2021/03/25 01:34:19;;;;;;;520.90;249.20;;;;;;;-144.99;95.46;52393.06;5070912;28;20655;-77
2021/03/25 01:36:47;;;;;;;421.70;263.57;;;;;;;-144.99;95.38;52374.72;5070379;28;20643;-77
2021/03/25 01:39:13;;;;;;;377.93;259.53;;;;;;;-144.99;95.88;52366.56;5072626;28;21199;-77
2021/03/25 01:41:40;;;;;;;536.37;268.83;;;;;;;-144.99;96.03;52395.09;5065357;28;21177;-78
2021/03/25 01:44:27;;;;;;;314.10;238.47;;;;;;;-144.99;96.20;52352.28;5069520;28;20754;-77
2021/03/25 01:46:53;;;;;;;385.30;224.43;;;;;;;-144.99;96.38;52382.88;5063800;28;20978;-77
2021/03/25 01:49:19;;;;;;;389.07;238.93;;;;;;;-144.99;96.65;52362.50;5069204;28;20714;-77
2021/03/25 01:51:59;;;;;;;373.70;240.23;;;;;;;-144.99;96.87;52415.47;5063660;28;20201;-77
2021/03/25 01:54:43;;;;;;;65.80;38.27;;;;;;;-144.99;96.60;52395.09;5060607;28;20232;-79
2021/03/25 01:57:33;;;;;;;100.47;71.03;;;;;;;-144.99;96.70;52346.19;5067828;28;20224;-78
2021/03/25 02:00:18;;;;;;;194.10;146.17;;;;;;;-144.99;96.50;52382.88;5064037;28;21160;-77
2021/03/25 02:02:55;;;;;;;133.47;121.50;;;;;;;-144.99;96.57;52403.25;5070228;28;21207;-76
2021/03/25 02:05:26;;;;;;;122.60;109.03;;;;;;;-144.99;96.59;52368.59;5066452;28;21069;-77
2021/03/25 02:08:04;;;;;;;117.20;104.73;;;;;;;-144.99;96.68;52344.16;5072914;28;20615;-77
2021/03/25 02:10:39;;;;;;;299.50;211.47;;;;;;;-144.99;96.75;52399.19;5071047;28;20607;-79
2021/03/25 02:13:11;;;;;;;69.93;47.17;;;;;;;-144.99;96.68;52321.72;5060072;28;20620;-78
2021/03/25 02:15:41;;;;;;;71.13;45.20;;;;;;;-144.99;96.57;52391.03;5071045;28;20231;-77
2021/03/25 02:18:15;;;;;;;189.87;170.50;;;;;;;-144.99;96.32;52358.41;5073912;28;20239;-77
2021/03/25 02:21:19;;;;;;;233.20;205.90;;;;;;;-144.99;96.26;52399.19;5072317;28;20623;-77
2021/03/25 02:24:14;;;;;;;297.10;219.17;;;;;;;-144.99;96.16;52364.53;5067549;28;20651;-77
2021/03/25 02:26:45;;;;;;;309.20;217.13;;;;;;;-144.99;96.08;52370.63;5069544;28;20697;-80
2021/03/25 02:29:47;;;;;;;256.23;214.47;;;;;;;-144.99;95.89;52401.22;5071242;28;20634;-79
2021/03/25 02:32:23;;;;;;;256.67;208.63;;;;;;;-144.99;95.90;52321.72;5062556;28;20618;-78
2021/03/25 02:34:52;;;;;;;316.37;230.40;;;;;;;-144.99;95.88;52354.34;5068799;28;20646;-76
2021/03/25 02:37:21;;;;;;;235.07;209.10;;;;;;;-144.99;95.81;52354.34;5067860;28;20658;-79
2021/03/25 02:39:54;;;;;;;201.23;181.90;;;;;;;-144.99;95.91;52352.28;5068593;28;20618;-78
2021/03/25 02:42:24;;;;;;;201.07;181.90;;;;;;;-144.99;96.01;52391.03;5069437;28;20635;-78
2021/03/25 02:44:57;;;;;;;283.53;240.80;;;;;;;-144.99;96.04;52397.13;5061699;28;20204;-77
2021/03/25 02:47:25;;;;;;;223.33;200.03;;;;;;;-144.99;96.23;52305.41;5072377;28;20612;-77
2021/03/25 02:49:55;;;;;;;302.47;231.83;;;;;;;-144.99;96.02;52366.56;5060223;28;20197;-76
2021/03/25 02:52:24;;;;;;;309.13;228.60;;;;;;;-144.99;96.22;52372.69;5070232;28;20634;-76
2021/03/25 02:54:52;;;;;;;270.90;225.00;;;;;;;-144.99;95.96;52362.50;5070541;28;20647;-75
2021/03/25 02:57:24;;;;;;;305.60;233.20;;;;;;;-144.99;96.12;52403.25;5070638;28;20724;-77
2021/03/25 02:59:55;;;;;;;291.07;230.07;;;;;;;-144.99;95.98;52374.72;5067922;28;20618;-76
2021/03/25 03:02:29;;;;;;;325.03;234.37;;;;;;;-144.99;95.94;52346.19;5070778;28;20622;-76
2021/03/25 03:05:01;;;;;;;413.43;249.40;;;;;;;-144.99;95.90;52391.03;5061527;28;20993;-72
2021/03/25 03:07:31;;;;;;;350.83;248.40;;;;;;;-144.99;95.86;52325.81;5068013;28;20983;-74
2021/03/25 03:10:04;;;;;;;490.43;270.50;;;;;;;-144.99;95.75;52378.78;5069693;28;20185;-73
2021/03/25 03:12:36;;;;;;;443.73;252.80;;;;;;;-144.99;95.77;52370.63;5065228;28;20664;-74
2021/03/25 03:15:08;;;;;;;416.53;255.37;;;;;;;-144.99;95.57;52358.41;5062185;28;20712;-77
2021/03/25 03:17:39;;;;;;;379.27;245.07;;;;;;;-144.99;95.62;52415.47;5069863;28;21019;-75
2021/03/25 03:20:12;;;;;;;381.63;250.13;;;;;;;-144.99;95.49;52378.78;5067151;28;20620;-75
2021/03/25 03:22:38;;;;;;;411.03;246.03;;;;;;;-144.99;95.59;52362.50;5054588;28;20644;-75
2021/03/25 03:25:07;;;;;;;434.80;247.67;;;;;;;-144.99;95.59;52382.88;5069856;28;20649;-76
2021/03/25 03:27:38;;;;;;;493.10;277.30;;;;;;;-144.99;95.51;52354.34;5068455;28;20807;-76
2021/03/25 03:30:08;;;;;;;506.70;263.70;;;;;;;-144.99;95.64;52362.50;5076401;28;20631;-76
2021/03/25 03:32:41;;;;;;;489.13;260.90;;;;;;;-144.99;95.60;52386.94;5066748;28;20951;-75
2021/03/25 03:35:12;;;;;;;518.50;256.13;;;;;;;-144.99;95.75;52358.41;5063343;28;20639;-76
2021/03/25 03:37:42;;;;;;;479.77;263.33;;;;;;;-144.99;95.75;52362.50;5070024;28;21239;-76
2021/03/25 03:40:13;;;;;;;512.90;254.30;;;;;;;-144.99;95.88;52366.56;5065369;28;20624;-76
2021/03/25 03:42:41;;;;;;;477.40;255.17;;;;;;;-144.99;95.81;52378.78;5069601;28;20619;-76
2021/03/25 03:45:11;;;;;;;536.93;260.33;;;;;;;-144.99;95.83;52362.50;5060226;28;21027;-77
2021/03/25 03:47:40;;;;;;;458.60;249.13;;;;;;;-144.99;95.91;52354.34;5068708;28;20607;-76
2021/03/25 03:50:13;;;;;;;503.30;271.87;;;;;;;-144.99;95.76;52350.25;5069963;28;20627;-77
2021/03/25 03:52:39;;;;;;;460.60;247.97;;;;;;;-144.99;95.90;52376.75;5063537;28;21287;-77
2021/03/25 03:55:09;;;;;;;472.30;259.80;;;;;;;-144.99;96.03;52370.63;5069329;28;20665;-77
2021/03/25 03:57:45;;;;;;;488.63;256.03;;;;;;;-144.99;95.92;52403.25;5066748;28;20643;-78
2021/03/25 04:00:14;;;;;;;456.10;261.00;;;;;;;-144.99;96.00;52313.56;5069480;28;21229;-77
2021/03/25 04:02:43;;;;;;;505.40;257.63;;;;;;;-144.99;96.12;52374.72;5069873;28;20637;-78
2021/03/25 04:05:16;;;;;;;560.50;250.47;;;;;;;-144.99;96.17;52362.50;5069968;28;20725;-78
2021/03/25 04:07:48;;;;;;;553.83;248.33;;;;;;;-144.99;96.03;52366.56;5071181;28;20613;-78
2021/03/25 04:10:18;;;;;;;505.27;253.57;;;;;;;-144.99;96.00;52356.38;5071429;28;20672;-78
2021/03/25 04:12:48;;;;;;;498.20;255.50;;;;;;;-144.99;95.99;52346.19;5069739;28;20615;-78
2021/03/25 04:15:19;;;;;;;518.63;267.80;;;;;;;-144.99;96.07;52386.94;5061822;28;20667;-76
2021/03/25 04:18:03;;;;;;;559.20;257.33;;;;;;;-144.99;95.93;52364.53;5068641;28;20646;-77
2021/03/25 04:20:31;;;;;;;522.50;267.00;;;;;;;-144.99;96.28;52366.56;5067521;28;20623;-78
2021/03/25 04:23:01;;;;;;;540.23;259.10;;;;;;;-144.99;96.16;52364.53;5068758;28;20662;-78
2021/03/25 04:25:30;;;;;;;557.80;258.77;;;;;;;-144.99;96.31;52370.63;5070852;28;21076;-78
2021/03/25 04:28:04;;;;;;;569.63;263.80;;;;;;;-144.99;96.26;52350.25;5096450;22;20698;-71
2021/03/25 04:30:34;;;;;;;548.23;256.90;;;;;;;-144.99;96.26;52350.25;5070392;28;20634;-73
2021/03/25 04:33:04;;;;;;;546.33;251.80;;;;;;;-144.99;96.38;52374.72;5071140;28;20667;-73
2021/03/25 04:35:30;;;;;;;504.50;259.27;;;;;;;-144.99;96.10;52354.34;5056138;28;20619;-71
2021/03/25 04:37:58;;;;;;;500.83;261.33;;;;;;;-144.99;96.17;52346.19;5071441;28;21038;-73
2021/03/25 04:40:28;;;;;;;500.83;271.97;;;;;;;-144.99;96.28;52393.06;5068975;28;20626;-75
2021/03/25 04:42:54;;;;;;;521.87;254.53;;;;;;;-144.99;96.23;52386.94;5067852;28;20627;-72
2021/03/25 04:45:26;;;;;;;497.37;256.93;;;;;;;-144.99;96.29;52358.41;5068674;28;20611;-72
2021/03/25 04:47:56;;;;;;;532.40;258.10;;;;;;;-144.99;97.05;52362.50;5071629;28;20646;-72
2021/03/25 04:50:27;;;;;;;542.17;261.63;;;;;;;-144.99;96.70;52354.34;5070343;28;20622;-71
2021/03/25 04:53:04;;;;;;;487.97;269.40;;;;;;;-144.99;96.77;52370.63;5064762;28;20999;-73
2021/03/25 04:55:34;;;;;;;496.77;254.03;;;;;;;-144.99;96.68;52342.09;5071906;28;21180;-71
2021/03/25 04:58:04;;;;;;;521.73;261.87;;;;;;;-144.99;96.85;52362.50;5063450;28;20747;-72
2021/03/25 05:00:33;;;;;;;504.10;264.33;;;;;;;-144.99;96.98;52350.25;5072572;28;21243;-72
2021/03/25 05:03:01;;;;;;;490.87;269.07;;;;;;;-144.99;97.07;52380.84;5073471;28;20989;-72
2021/03/25 05:05:30;;;;;;;509.93;266.13;;;;;;;-144.99;96.98;52382.88;5074114;28;20627;-74
2021/03/25 05:08:01;;;;;;;508.37;269.63;;;;;;;-144.99;97.15;52348.22;5075354;28;20753;-72
2021/03/25 05:10:34;;;;;;;541.53;262.77;;;;;;;-144.99;97.21;52374.72;5072282;28;20645;-71
2021/03/25 05:13:00;;;;;;;545.23;275.57;;;;;;;-144.99;97.54;52364.53;5072300;28;20610;-73
2021/03/25 05:15:27;;;;;;;526.83;264.20;;;;;;;-144.99;97.51;52350.25;5070572;28;20630;-73
2021/03/25 05:18:06;;;;;;;517.83;264.03;;;;;;;-144.99;97.67;52340.06;5071290;28;21034;-72
2021/03/25 05:20:40;;;;;;;492.87;247.67;;;;;;;-144.99;97.84;52342.09;5066494;28;20995;-76
2021/03/25 05:23:16;;;;;;;508.40;250.57;;;;;;;-144.99;98.32;52370.63;5067875;28;20627;-72
2021/03/25 05:25:47;;;;;;;510.83;271.10;;;;;;;-144.99;98.57;52374.72;5071104;28;20618;-74
2021/03/25 05:28:26;;;;;;;531.60;256.57;;;;;;;-144.99;98.68;52413.44;5071644;28;21244;-75
2021/03/25 05:30:54;;;;;;;501.57;264.47;;;;;;;-144.99;98.71;52393.06;5078827;28;20622;-73
2021/03/25 05:33:24;;;;;;;498.43;258.63;;;;;;;-144.99;98.75;52384.91;5070755;28;20611;-73
2021/03/25 05:35:55;;;;;;;504.67;267.40;;;;;;;-144.99;99.30;52366.56;5065218;28;20689;-71
2021/03/25 05:38:22;;;;;;;479.97;267.97;;;;;;;-144.99;99.03;52370.63;5070975;28;20966;-71
2021/03/25 05:40:52;;;;;;;542.33;265.57;;;;;;;-144.99;98.87;52374.72;5069173;28;21121;-74
2021/03/25 05:43:34;;;;;;;487.00;264.90;;;;;;;-144.99;98.64;52366.56;5071335;28;20603;-74
2021/03/25 05:46:09;;;;;;;535.70;267.80;;;;;;;-144.99;98.65;52382.88;5069228;28;20664;-72
2021/03/25 05:49:06;;;;;;;545.20;273.03;;;;;;;-144.99;98.59;52368.59;5069488;28;20646;-76
2021/03/25 05:51:41;;;;;;;531.73;260.53;;;;;;;-144.99;98.80;52344.16;5040523;28;20991;-75
2021/03/25 05:54:28;;;;;;;539.13;246.80;;;;;;;-144.99;98.92;52325.81;5071599;28;20622;-76
2021/03/25 05:57:12;;;;;;;516.63;252.37;;;;;;;-144.99;98.69;52388.97;5066729;28;20670;-73
2021/03/25 05:59:45;;;;;;;570.23;256.77;;;;;;;-144.99;98.39;52333.94;5065966;28;20630;-75
2021/03/25 06:02:22;;;;;;;556.63;246.50;;;;;;;-144.99;98.42;52378.78;5070605;28;20631;-75
2021/03/25 06:04:51;;;;;;;556.13;239.80;;;;;;;-144.99;99.13;52366.56;5071039;28;20995;-72
2021/03/25 06:07:49;;;;;;;571.50;244.60;;;;;;;-144.99;99.31;52350.25;5070710;28;21249;-76
2021/03/25 06:10:25;;;;;;;567.03;231.67;;;;;;;-144.99;99.54;52370.63;5061766;28;20623;-76
2021/03/25 06:13:05;;;;;;;571.30;251.10;;;;;;;-144.99;99.03;52358.41;5063169;28;20721;-75
2021/03/25 06:15:53;;;;;;;573.77;245.70;;;;;;;-144.99;98.95;52358.41;5066222;28;20995;-73
2021/03/25 06:18:40;;;;;;;568.83;233.00;;;;;;;-144.99;98.77;52382.88;5070384;28;20663;-76
2021/03/25 06:21:11;;;;;;;552.13;244.93;;;;;;;-144.99;98.68;52329.88;5064758;28;20629;-77
2021/03/25 06:23:55;;;;;;;565.50;242.53;;;;;;;-144.99;98.42;52382.88;4368436;28;9999941;-75
2021/03/25 06:26:29;;;;;;;497.90;256.87;;;;;;;-144.99;98.24;52354.34;5067242;28;20196;-75
2021/03/25 06:29:02;;;;;;;496.27;260.27;;;;;;;-144.99;98.28;52333.94;5064682;28;20680;-74
2021/03/25 06:31:41;;;;;;;500.33;247.10;;;;;;;-144.99;98.39;52354.34;5070485;28;21192;-74
2021/03/25 06:34:14;;;;;;;510.50;241.00;;;;;;;-144.99;98.02;52354.34;5067912;28;20625;-74
2021/03/25 06:36:56;;;;;;;484.97;240.53;;;;;;;-144.99;97.47;52378.78;5062699;28;20701;-74
2021/03/25 06:39:30;;;;;;;513.23;248.33;;;;;;;-144.99;96.96;52370.63;5067916;28;20647;-76
2021/03/25 06:42:06;;;;;;;498.10;253.43;;;;;;;-144.99;96.71;52346.19;5066336;28;20630;-73
2021/03/25 06:44:40;;;;;;;521.53;247.70;;;;;;;-144.99;95.94;52370.63;5068015;28;20797;-73
2021/03/25 06:47:16;;;;;;;557.77;254.17;;;;;;;-144.99;95.58;52346.19;5074067;28;20614;-78
2021/03/25 06:49:48;;;;;;;538.53;249.93;;;;;;;-144.99;95.42;52342.09;5077111;28;21248;-80
2021/03/25 06:52:24;;;;;;;554.87;262.40;;;;;;;-144.99;94.94;52333.94;5081367;28;20728;-80
2021/03/25 06:54:54;;;;;;;473.07;254.93;;;;;;;-144.99;94.45;52329.88;5077553;28;20621;-78
2021/03/25 06:57:23;;;;;;;555.57;246.00;;;;;;;-144.99;93.54;52350.25;5073408;28;20734;-79
2021/03/25 06:59:54;;;;;;;537.70;260.13;;;;;;;-144.99;93.28;52364.53;5072695;28;20631;-77
2021/03/25 07:02:27;;;;;;;426.67;255.43;;;;;;;-144.99;92.85;52342.09;5072459;28;20623;-77
2021/03/25 07:04:56;;;;;;;397.90;246.33;;;;;;;-144.99;91.74;52362.50;5066201;28;20623;-79
2021/03/25 07:07:27;;;;;;;405.23;254.17;;;;;;;-144.99;91.68;52378.78;5076966;28;21230;-79
2021/03/25 07:09:56;;;;;;;421.57;253.97;;;;;;;-144.99;91.15;52323.75;5065018;28;20611;-79
2021/03/25 07:12:27;;;;;;;505.23;255.87;;;;;;;-144.99;90.98;52315.59;5071543;28;20623;-79
2021/03/25 07:14:54;;;;;;;474.00;274.13;;;;;;;-144.99;90.60;52358.41;5063174;28;20630;-81
2021/03/25 07:17:33;;;;;;;501.90;253.23;;;;;;;-144.99;90.33;52362.50;5070605;28;20646;-78
2021/03/25 07:20:11;;;;;;;550.67;245.93;;;;;;;-144.99;90.39;52338.03;5061967;28;21125;-78
2021/03/25 07:22:37;;;;;;;515.80;267.10;;;;;;;-144.99;90.49;52333.94;5069649;28;20633;-78
2021/03/25 07:25:17;;;;;;;489.40;268.90;;;;;;;-144.99;90.40;52325.81;5066189;28;20639;-77
2021/03/25 07:27:44;;;;;;;510.47;279.63;;;;;;;-144.99;89.92;52327.84;5062715;28;20225;-79
2021/03/25 07:30:15;;;;;;;548.30;282.77;;;;;;;-144.99;89.20;52340.06;5078823;28;20618;-78
2021/03/25 07:32:47;;;;;;;568.53;286.17;;;;;;;-144.99;88.67;52321.72;5073671;28;20615;-77
2021/03/25 07:35:26;;;;;;;560.17;283.57;;;;;;;-144.99;88.74;52344.16;5071464;28;21172;-78
2021/03/25 07:37:53;;;;;;;570.50;285.00;;;;;;;-144.99;88.08;52333.94;5073045;28;21123;-79
2021/03/25 07:40:28;;;;;;;603.60;355.70;;;;;;;-144.99;87.35;52336.00;5068971;28;20684;-79
2021/03/25 07:42:55;;;;;;;520.57;281.90;;;;;;;-144.99;87.02;52338.03;5072394;28;21157;-79
2021/03/25 07:45:28;;;;;;;544.33;302.00;;;;;;;-144.99;87.03;52325.81;5070010;28;20675;-79
2021/03/25 07:48:01;;;;;;;568.87;321.43;;;;;;;-144.99;86.95;52313.56;5075006;28;21231;-80
2021/03/25 07:50:30;;;;;;;123.50;110.47;;;;;;;-144.99;86.67;52346.19;5069714;28;20630;-75
2021/03/25 07:52:57;;;;;;;102.60;92.90;;;;;;;-144.99;86.44;52340.06;5062519;28;20277;-80
2021/03/25 07:55:27;;;;;;;39.30;35.13;;;;;;;-144.99;86.04;52366.56;5073055;28;20205;-77
2021/03/25 07:57:55;;;;;;;119.57;104.80;;;;;;;-144.99;85.81;52319.69;5064711;28;20225;-78
2021/03/25 08:00:30;;;;;;;58.03;52.73;;;;;;;-144.99;85.70;52325.81;5066395;28;20658;-76
2021/03/25 08:03:11;;;;;;;38.50;23.73;;;;;;;-144.99;84.93;52378.78;5074183;28;20196;-79
2021/03/25 08:05:37;;;;;;;46.03;25.57;;;;;;;-144.99;84.22;52342.09;5071948;28;20713;-80
2021/03/25 08:08:16;;;;;;;33.63;22.33;;;;;;;-144.99;84.14;52301.34;5072603;28;20792;-77
2021/03/25 08:10:46;;;;;;;32.23;21.87;;;;;;;-144.99;83.43;52346.19;5066420;28;20709;-79
2021/03/25 08:13:19;;;;;;;36.23;22.53;;;;;;;-144.99;83.64;52346.19;5070300;28;20209;-79
2021/03/25 08:15:49;;;;;;;31.97;21.63;;;;;;;-144.99;83.42;52346.19;5069957;28;20288;-78
2021/03/25 08:18:54;;;;;;;35.63;23.37;;;;;;;-144.99;82.86;52346.19;5069678;28;20228;-80
2021/03/25 08:21:33;;;;;;;37.77;23.83;;;;;;;-144.99;82.81;52305.41;5026393;28;20264;-81
2021/03/25 08:24:50;;;;;;;40.67;22.97;;;;;;;-144.99;82.41;52358.41;5062230;28;20295;-75
2021/03/25 08:27:34;;;;;;;35.67;26.73;;;;;;;-144.99;82.03;52301.34;5065013;28;20209;-76
2021/03/25 08:30:19;;;;;;;32.60;21.93;;;;;;;-144.99;82.40;52311.53;5077760;28;20203;-80
2021/03/25 08:32:58;;;;;;;35.07;23.33;;;;;;;-144.99;81.28;52317.66;5076330;28;20266;-77
2021/03/25 08:35:30;;;;;;;132.17;120.83;;;;;;;-144.99;80.55;52299.31;5076888;28;20196;-77
2021/03/25 08:38:23;;;;;;;379.40;341.73;;;;;;;-144.99;80.57;52329.88;5075947;28;20304;-78
2021/03/25 08:40:54;;;;;;;228.10;209.77;;;;;;;-144.99;80.28;52344.16;5078776;28;20204;-80
2021/03/25 08:43:26;;;;;;;421.33;377.23;;;;;;;-144.99;78.80;52268.72;5075595;28;20618;-77
2021/03/25 08:45:57;;;;;;;583.43;339.70;;;;;;;-144.99;77.84;52276.88;5069550;28;20204;-77
2021/03/25 08:48:27;;;;;;;581.13;377.07;;;;;;;-144.99;77.59;52350.25;5075283;28;20796;-77
2021/03/25 08:51:00;;;;;;;581.57;364.27;;;;;;;-144.99;78.70;52321.72;5074467;28;20644;-79
2021/03/25 08:53:35;;;;;;;567.30;373.33;;;;;;;-144.99;77.49;52303.38;5066626;28;20789;-74
2021/03/25 08:56:08;;;;;;;561.57;365.10;;;;;;;-144.99;76.79;52264.66;5062779;28;20275;-75
2021/03/25 08:58:39;;;;;;;602.67;407.10;;;;;;;-144.99;76.20;52321.72;5074767;28;20224;-79
2021/03/25 09:01:13;;;;;;;597.73;394.77;;;;;;;-144.99;75.12;52311.53;5072866;28;20630;-73
2021/03/25 09:03:44;;;;;;;588.97;396.13;;;;;;;-144.99;74.51;52280.97;5074475;28;20670;-78
2021/03/25 09:06:14;;;;;;;601.37;397.00;;;;;;;-144.99;73.64;52305.41;5078502;28;20189;-77
2021/03/25 09:08:43;;;;;;;591.33;386.33;;;;;;;-144.99;73.63;52256.50;5072227;28;20691;-79
2021/03/25 09:11:13;;;;;;;598.23;398.43;;;;;;;-144.99;73.71;52333.94;5077086;28;21049;-79
2021/03/25 09:13:44;;;;;;;598.47;414.27;;;;;;;-144.99;71.33;52272.81;5076499;28;20638;-79
2021/03/25 09:16:14;;;;;;;603.17;426.53;;;;;;;-144.99;70.67;52280.97;5068822;28;21202;-77
2021/03/25 09:18:44;;;;;;;600.87;423.63;;;;;;;-144.99;69.25;52244.28;5080025;28;20240;-77
2021/03/25 09:21:14;;;;;;;599.73;435.57;;;;;;;-144.99;68.07;52280.97;5063754;28;20675;-77
2021/03/25 09:24:01;;;;;;;600.60;441.47;;;;;;;-144.99;67.73;52289.13;5073215;28;20638;-77
2021/03/25 09:26:46;;;;;;;609.33;486.47;;;;;;;-144.99;67.32;52236.13;5083426;28;20614;-79
2021/03/25 09:29:16;;;;;;;599.00;450.80;;;;;;;-144.99;66.03;52223.88;5076482;28;20673;-82
2021/03/25 09:32:33;;;;;;;609.13;481.67;;;;;;;-144.99;65.77;52264.66;5077400;28;20643;-77
2021/03/25 09:35:01;;;;;;;604.47;465.97;;;;;;;-144.99;66.17;52252.44;5060295;28;20608;-78
2021/03/25 09:37:29;;;;;;;612.57;496.20;;;;;;;-144.99;64.61;52236.13;5079402;28;20657;-77
2021/03/25 09:40:33;;;;;;;614.83;498.67;;;;;;;-144.99;63.50;52256.50;5081676;28;20629;-80
2021/03/25 09:43:37;;;;;;;626.03;520.50;;;;;;;-144.99;62.44;52199.44;5057797;28;20626;-78
2021/03/25 09:46:26;;;;;;;630.43;527.13;;;;;;;-144.99;60.51;52236.13;5025306;28;20501;-78
2021/03/25 09:48:54;;;;;;;643.77;539.23;;;;;;;-144.99;59.35;52260.56;5077918;28;20311;-78
2021/03/25 09:51:23;;;;;;;659.57;587.70;;;;;;;-144.99;57.76;52219.81;5077245;28;20232;-79
2021/03/25 09:53:50;;;;;;;707.27;633.50;;;;;;;-144.99;56.90;52238.16;5067990;28;20202;-78
2021/03/25 09:56:32;;;;;;;708.83;635.33;;;;;;;-144.99;56.27;52205.53;5069977;28;20208;-76
2021/03/25 09:58:59;;;;;;;721.13;646.97;;;;;;;-144.99;55.84;52191.28;5074288;28;20226;-78
2021/03/25 10:01:53;;;;;;;757.43;682.07;;;;;;;-144.99;54.96;52223.88;5072140;28;20206;-77
2021/03/25 10:04:34;;;;;;;799.17;723.43;;;;;;;-144.99;54.33;52199.44;5073862;28;20213;-77
2021/03/25 10:07:35;;;;;;;771.00;704.60;;;;;;;-144.99;53.14;52187.19;5076488;28;20237;-78
2021/03/25 10:10:35;;;;;;;87.23;80.67;;;;;;;-144.99;52.72;52203.50;5065697;28;20225;-76
2021/03/25 10:13:35;;;;;;;34.73;27.27;;;;;;;-144.99;53.11;52252.44;5062195;28;20677;-76
2021/03/25 10:16:04;;;;;;;34.87;22.77;;;;;;;-144.99;53.27;52215.75;5066967;28;20280;-79
2021/03/25 10:18:50;;;;;;;154.30;145.03;;;;;;;-144.99;52.54;52240.19;5066560;28;20228;-78
2021/03/25 10:21:18;;;;;;;103.80;97.80;;;;;;;-144.99;52.47;52232.03;5063137;28;20268;-78
2021/03/25 10:23:55;;;;;;;30.40;22.23;;;;;;;-144.99;51.38;52179.06;5063260;28;20219;-76
2021/03/25 10:26:30;;;;;;;146.00;139.13;;;;;;;-144.99;50.64;52158.66;5057924;28;20212;-81
2021/03/25 10:29:03;;;;;;;40.53;36.90;;;;;;;-144.99;49.14;52154.59;5064470;28;20405;-79
2021/03/25 10:31:32;;;;;;;32.67;20.33;;;;;;;-144.99;48.69;52130.13;5066568;28;20555;-76
2021/03/25 10:34:06;;;;;;;30.77;21.63;;;;;;;-144.99;48.50;52113.84;5073717;28;20205;-79
2021/03/25 10:36:39;;;;;;;33.27;21.00;;;;;;;-144.99;47.96;52121.97;5071355;28;20226;-76
2021/03/25 10:39:15;;;;;;;30.30;21.10;;;;;;;-144.99;47.65;52130.13;5086935;22;20727;-77
2021/03/25 10:41:42;;;;;;;32.33;20.57;;;;;;;-144.99;46.63;52105.69;5054896;28;20197;-78
2021/03/25 10:44:19;;;;;;;29.60;19.90;;;;;;;-144.99;46.43;52071.03;5065332;28;20280;-76
2021/03/25 10:46:47;;;;;;;32.57;21.63;;;;;;;-144.99;45.27;52052.69;5065850;28;20196;-80
2021/03/25 10:49:18;;;;;;;23.93;18.63;;;;;;;-144.99;45.67;52121.97;5057681;28;20290;-77
2021/03/25 10:51:45;;;;;;;23.87;16.83;;;;;;;-144.99;45.19;52170.91;5061273;28;20652;-78
2021/03/25 10:54:21;;;;;;;24.60;15.43;;;;;;;-144.99;46.15;52164.78;5053161;28;20188;-78
2021/03/25 10:56:48;;;;;;;27.87;17.83;;;;;;;-144.99;47.40;52138.28;5051466;28;20717;-76
2021/03/25 10:59:20;;;;;;;21.57;15.00;;;;;;;-144.99;47.37;52117.91;5065696;28;20271;-77
2021/03/25 11:01:48;;;;;;;25.83;16.23;;;;;;;-144.99;46.53;52193.31;5059051;28;20247;-78
2021/03/25 11:04:17;;;;;;;23.23;16.77;;;;;;;-144.99;46.82;52081.22;5067036;28;20211;-77
2021/03/25 11:06:43;;;;;;;26.57;17.33;;;;;;;-144.99;46.00;52089.38;5062880;28;20223;-77
2021/03/25 11:09:16;;;;;;;27.13;20.00;;;;;;;-144.99;45.48;52042.50;5066541;28;20718;-77
2021/03/25 11:11:42;;;;;;;30.97;18.33;;;;;;;-144.99;45.19;52048.63;5057816;28;20220;-77
2021/03/25 11:14:21;;;;;;;24.33;16.23;;;;;;;-144.99;45.57;52154.59;5060687;28;20197;-73
2021/03/25 11:16:53;;;;;;;24.97;15.10;;;;;;;-144.99;45.88;52227.97;5063739;28;20265;-72